Aledo, Illinois
Current Conditions -  °F | °C
As of 5:52 PM on Thursday 18 Dec 2014 (Local Time) from KMLI Reporting Station
Overcast Overcast  
Wind Chill: -6°   Ceiling: 9000
Heat Index: -3°   Visibility: 10mi
Dew Point: -8°   Wind: 5mph
Humidity: 69%   Direction: 350°N
Pressure: 30.28"   Gusts: NA
Location:  41.2°N, 90.75°W
Report Text: KMLI 182352Z 35004KT 10SM SCT070 OVC090 M03/M08 A3028 RMK AO2 SLP262 T10331083 11011 21033 53010
Loading
Personal Weather Stations






























Interactive Weather Map New forecast layout! Learn more

10-Day Weather Forecast

Advertisements
Track Severe Weather on mobile